天津 の空港の天気 - METARとTAF

天津濱海国際空港 ( ZBTJ / TSN ) - 中国 天津市
飛行場実況気象(Metar)
観測時間07/20 19:00 CST (07/20 11:00 UTC)
風向・風速西 3m/s
視程4000m
天気現象弱い雨 もや
少しの雲 雲底高度 490m
気温26℃
湿度89%
気圧1002hPa
METARZBTJ 201100Z 26003MPS 220V280 4000 -RA BR FEW016 26/24 Q1002 NOSIG
過去の天気等 Google飛行場航空写真 Wunderground天気予報

過去48時間のMETAR

飛行場予報(TAF)
発表時間: 7/20 10:57 CST (7/20 02:57 UTC)
予報対象時間: 20日14時 CST ~ 21日14時 CST
風向・風速南南東 3m/s
視程5000m
天気現象煙霧
なし
20日14時 CST ~ 20日20時 CST に一時的に
視程3000m
天気現象弱いしゅう雨 もや
TAF ZBTJ 200257Z 2006/2106 15003MPS 5000 HZ NSC TX32/2007Z TN24/2021Z
TEMPO 2006/2012 3000 -SHRA BR